Saint Columbans, Nebraska
Current Conditions -  °F | °C
As of 9:58 PM on Tuesday 25 Nov 2014 (Local Time) from KOFF Reporting Station
Clear Clear  
Wind Chill: 29°   Ceiling: Unl
Heat Index: 37°   Visibility: 10mi
Dew Point: 26°   Wind: 13mph
Humidity: 65%   Direction: 120°ESE
Pressure: 29.87"   Gusts: NA
Location:  41.1°N, 95.87°W
Report Text: KOFF 260358Z AUTO 12011KT 10SM CLR 03/M03 A2987 RMK AO2 RAB0335E0351 SLP129 P0000 T00291032
Loading
Personal Weather Stations






























Interactive Weather Map New forecast layout! Learn more

10-Day Weather Forecast

Advertisements
Track Severe Weather on mobile